Mettler, Australia
Current Conditions -  °F | °C
As of 6:00 PM on Thursday 29 Jan 2015 (Local Time) from YABA Reporting Station
Scattered Clouds Scattered Clouds  
Wind Chill: 75°   Ceiling: Unl
Heat Index: 75°   Visibility: 6mi
Dew Point: 61°   Wind: 10mph
Humidity: 61%   Direction: 160°SSE
Pressure: 29.85"   Gusts: NA
Location:  34.59°S, 118.44°E
Report Text: YABA 291000Z AUTO 16009KT 9999 // SCT120 24/16 Q1011
Loading
Personal Weather Stations






























Interactive Weather Map New forecast layout! Learn more

10-Day Weather Forecast

Advertisements
Track Severe Weather on mobile